Cape Charles — WDI5730 — position and weather

sailwx.info

Track history (hours):
 
Tides and Currents Weather Stations Pressure Air Temp Water Temp Dewpoint Dewpoint Depression Visibility Wind Speed Wind Dir Waves Ship Positions

Cape Charles

Owner: Virginia Pilot Boat Corporation, VIRGINIA BEACH, VA. More information available from US FCC via Universal Licensing System and Coast Guard Vessel Documentation Center.

Last reported at 2018-Feb-21 16:28 UTC. Time now 2018-Feb-21 17:24 UTC.
Position N 36°60' W 076°02'.

Length 13 m; draft 1.5 m.

Type: Pilot. MMSI: 367711530.

Date/timePositionNaut miles runAvg speedWind from/ knotsBaromVisibWave heightAir tempDewpointWater temp
2018-Feb-21 16:28N 36°60' W 076°02'511.4
2018-Feb-21 16:00N 36°56' W 075°57'612.7
2018-Feb-21 15:30N 36°56' W 076°04'1 2.7
2018-Feb-21 14:59N 36°54' W 076°05'3 5.8
2018-Feb-21 14:30N 36°57' W 076°03'3 4.7
2018-Feb-21 13:55N 36°54' W 076°05'0 0.0
2018-Feb-21 13:29N 36°54' W 076°05'0 0.0
2018-Feb-21 12:59N 36°54' W 076°05'0 0.0
2018-Feb-20 18:46N 36°54' W 076°05'0 0.0
2018-Feb-20 18:07N 36°54' W 076°05'0 0.0
2018-Feb-20 17:58N 36°54' W 076°05'0 0.0
2018-Feb-20 17:30N 36°54' W 076°05'0 0.0
2018-Feb-20 12:34N 36°54' W 076°05'0 0.0
2018-Feb-19 22:22N 36°54' W 076°05'0 0.0
2018-Feb-19 19:43N 36°54' W 076°05'0 0.0
2018-Feb-19 19:28N 36°54' W 076°05'0 0.0
2018-Feb-19 18:55N 36°54' W 076°05'0 0.0
2018-Feb-19 18:28N 36°54' W 076°05'0 0.0
2018-Feb-19 17:55N 36°54' W 076°05'0 0.0
2018-Feb-19 17:30N 36°54' W 076°05'0 0.0
2018-Feb-19 16:56N 36°54' W 076°05'0 0.0
2018-Feb-19 16:25N 36°54' W 076°05'0 0.0
2018-Feb-19 15:40N 36°54' W 076°05'0 0.0
2018-Feb-19 15:29N 36°54' W 076°05'0 0.0
2018-Feb-19 14:56N 36°54' W 076°05'0 0.0
2018-Feb-19 14:17N 36°54' W 076°05'0 0.0
2018-Feb-19 13:50N 36°54' W 076°05'0 0.0
2018-Feb-19 13:29N 36°54' W 076°05'0 0.0
2018-Feb-19 11:12N 36°54' W 076°05'14 8.7
2018-Feb-19 09:37N 37°08' W 076°04'524.6
2018-Feb-19 09:24N 37°03' W 076°04'8 0.6
2018-Feb-18 20:04N 36°54' W 076°05'0 0.0
2018-Feb-18 19:59N 36°54' W 076°05'0 0.0
2018-Feb-18 19:05N 36°54' W 076°05'0 0.0
2018-Feb-18 18:51N 36°54' W 076°05'0 0.0
2018-Feb-18 18:07N 36°54' W 076°05'0 0.0
2018-Feb-18 17:11N 36°54' W 076°05'316.2
2018-Feb-18 17:00N 36°56' W 076°02'3 6.2
2018-Feb-18 16:30N 36°54' W 076°05'0 0.0
2018-Feb-18 15:57N 36°54' W 076°05'0 0.0
2018-Feb-18 15:30N 36°54' W 076°05'0 0.0
2018-Feb-18 15:00N 36°54' W 076°05'0 0.0
2018-Feb-17 22:21N 36°54' W 076°05'0 0.0
2018-Feb-17 22:00N 36°54' W 076°05'0 0.0
2018-Feb-17 03:17N 36°54' W 076°05'413.0
2018-Feb-17 03:00N 36°57' W 076°02'4 0.6
2018-Feb-16 21:08N 36°54' W 076°05'0 0.0
2018-Feb-16 21:00N 36°54' W 076°05'713.7
2018-Feb-16 20:30N 36°56' W 075°57'7 9.7
2018-Feb-16 19:46N 36°54' W 076°06'415.7
2018-Feb-16 19:30N 36°57' W 076°01'5 9.7
2018-Feb-16 19:01N 36°55' W 075°56'815.6
2018-Feb-16 18:30N 36°55' W 076°06'0 0.1
2018-Feb-16 16:20N 36°54' W 076°05'0 0.0
2018-Feb-16 08:11N 36°54' W 076°05'0 0.0
2018-Feb-16 07:51N 36°54' W 076°05'0 0.0
2018-Feb-16 07:16N 36°54' W 076°05'0 0.0
2018-Feb-15 22:51N 36°54' W 076°05'0 0.0
2018-Feb-15 22:29N 36°54' W 076°05'0 0.0
2018-Feb-15 22:01N 36°54' W 076°05'0 0.0
2018-Feb-15 21:26N 36°54' W 076°05'0 0.0
2018-Feb-15 20:59N 36°54' W 076°05'0 0.0
2018-Feb-15 20:30N 36°54' W 076°05'0 0.0
2018-Feb-15 20:00N 36°54' W 076°05'0 0.0
2018-Feb-15 19:30N 36°54' W 076°05'0 0.0
2018-Feb-15 19:00N 36°54' W 076°05'0 0.0
2018-Feb-15 18:31N 36°54' W 076°05'0 0.0
2018-Feb-15 18:00N 36°54' W 076°05'0 0.0
2018-Feb-15 17:27N 36°54' W 076°05'0 0.0
2018-Feb-15 17:00N 36°54' W 076°05'0 0.0
2018-Feb-15 16:30N 36°54' W 076°05'0 0.0
2018-Feb-15 15:56N 36°54' W 076°05'0 0.0
2018-Feb-15 15:28N 36°54' W 076°05'0 0.0
2018-Feb-15 15:00N 36°54' W 076°05'0 0.0
2018-Feb-15 14:30N 36°54' W 076°05'0 0.0
2018-Feb-15 13:58N 36°54' W 076°05'0 0.0
2018-Feb-15 13:30N 36°54' W 076°05'0 0.0
2018-Feb-15 12:05N 36°54' W 076°05'0 0.0
2018-Feb-14 22:38N 36°54' W 076°05'0 0.0
2018-Feb-14 22:30N 36°54' W 076°05'0 0.0
2018-Feb-14 22:00N 36°54' W 076°05'2 3.4
2018-Feb-14 21:30N 36°56' W 076°04'2 3.4
2018-Feb-14 21:00N 36°54' W 076°05'0 0.0
2018-Feb-14 16:33N 36°54' W 076°05'0 0.3
2018-Feb-14 16:30N 36°54' W 076°05'0 0.0
2018-Feb-14 15:58N 36°54' W 076°05'0 0.0
2018-Feb-14 15:23N 36°54' W 076°05'0 0.0
2018-Feb-14 14:45N 36°54' W 076°05'0 0.0
2018-Feb-14 14:26N 36°54' W 076°05'4 8.5
2018-Feb-14 14:00N 36°57' W 076°02'4 2.0
2018-Feb-14 12:10N 36°54' W 076°05'0 0.1
2018-Feb-14 11:59N 36°54' W 076°05'0 0.3
2018-Feb-14 11:17N 36°55' W 076°06'0 0.4
2018-Feb-14 10:58N 36°54' W 076°05'0 0.2
2018-Feb-14 10:14N 36°55' W 076°06'0 0.4
2018-Feb-14 09:56N 36°54' W 076°05'1213.6
2018-Feb-14 09:04N 37°06' W 076°04'326.6
2018-Feb-14 08:57N 37°03' W 076°04'9 0.8
2018-Feb-13 21:25N 36°54' W 076°05'0 0.0
2018-Feb-13 20:55N 36°54' W 076°05'0 0.0
2018-Feb-13 20:29N 36°54' W 076°05'0 0.0
2018-Feb-13 19:58N 36°54' W 076°05'0 0.0
2018-Feb-13 18:17N 36°54' W 076°05'0 0.0
2018-Feb-13 18:00N 36°54' W 076°05'0 0.0
2018-Feb-13 16:33N 36°54' W 076°05'0 0.0
2018-Feb-13 12:50N 36°54' W 076°05'0 0.0
2018-Feb-12 22:02N 36°54' W 076°05'0 0.0
2018-Feb-12 21:56N 36°54' W 076°05'0 0.0
2018-Feb-12 21:30N 36°54' W 076°05'0 0.0
2018-Feb-12 20:59N 36°54' W 076°05'0 0.0
2018-Feb-12 20:28N 36°54' W 076°05'0 0.0
2018-Feb-12 19:59N 36°54' W 076°05'0 0.0
2018-Feb-12 19:29N 36°54' W 076°05'0 0.0
2018-Feb-12 19:00N 36°54' W 076°05'0 0.0
2018-Feb-12 18:29N 36°54' W 076°05'0 0.0
2018-Feb-12 18:00N 36°54' W 076°05'0 0.0
2018-Feb-12 17:27N 36°54' W 076°05'0 0.0
2018-Feb-12 16:59N 36°54' W 076°05'0 0.0
2018-Feb-12 16:30N 36°54' W 076°05'0 0.0
2018-Feb-12 16:00N 36°54' W 076°05'0 0.0
2018-Feb-12 15:18N 36°54' W 076°05'0 0.0
2018-Feb-12 14:58N 36°54' W 076°05'0 0.0
2018-Feb-12 14:17N 36°54' W 076°05'0 0.0
2018-Feb-11 19:31N 36°54' W 076°05'0 0.0
2018-Feb-11 19:30N 36°54' W 076°05'2 4.0
2018-Feb-11 19:00N 36°56' W 076°05'2 3.2
2018-Feb-11 18:23N 36°54' W 076°05'0 0.0
2018-Feb-11 18:00N 36°54' W 076°05'0 0.0
2018-Feb-11 17:22N 36°54' W 076°05'0 0.0
2018-Feb-11 17:00N 36°54' W 076°05'  
Track history (hours):
 
Tides and Currents Weather Stations Pressure Air Temp Water Temp Dewpoint Dewpoint Depression Visibility Wind Speed Wind Dir Waves Ship Positions

Cape Charles

Owner: Virginia Pilot Boat Corporation, VIRGINIA BEACH, VA. More information available from US FCC via Universal Licensing System and Coast Guard Vessel Documentation Center.

Last reported at 2018-Feb-21 16:28 UTC. Time now 2018-Feb-21 17:24 UTC.
Position N 36°60' W 076°02'.

Length 13 m; draft 1.5 m.

Type: Pilot. MMSI: 367711530.

Date/timePositionNaut miles runAvg speedWind from/ knotsBaromVisibWave heightAir tempDewpointWater temp
2018-Feb-21 16:28N 36°60' W 076°02'511.4
2018-Feb-21 16:00N 36°56' W 075°57'612.7
2018-Feb-21 15:30N 36°56' W 076°04'1 2.7
2018-Feb-21 14:59N 36°54' W 076°05'3 5.8
2018-Feb-21 14:30N 36°57' W 076°03'3 4.7
2018-Feb-21 13:55N 36°54' W 076°05'0 0.0
2018-Feb-21 13:29N 36°54' W 076°05'0 0.0
2018-Feb-21 12:59N 36°54' W 076°05'0 0.0
2018-Feb-20 18:46N 36°54' W 076°05'0 0.0
2018-Feb-20 18:07N 36°54' W 076°05'0 0.0
2018-Feb-20 17:58N 36°54' W 076°05'0 0.0
2018-Feb-20 17:30N 36°54' W 076°05'0 0.0
2018-Feb-20 12:34N 36°54' W 076°05'0 0.0
2018-Feb-19 22:22N 36°54' W 076°05'0 0.0
2018-Feb-19 19:43N 36°54' W 076°05'0 0.0
2018-Feb-19 19:28N 36°54' W 076°05'0 0.0
2018-Feb-19 18:55N 36°54' W 076°05'0 0.0
2018-Feb-19 18:28N 36°54' W 076°05'0 0.0
2018-Feb-19 17:55N 36°54' W 076°05'0 0.0
2018-Feb-19 17:30N 36°54' W 076°05'0 0.0
2018-Feb-19 16:56N 36°54' W 076°05'0 0.0
2018-Feb-19 16:25N 36°54' W 076°05'0 0.0
2018-Feb-19 15:40N 36°54' W 076°05'0 0.0
2018-Feb-19 15:29N 36°54' W 076°05'0 0.0
2018-Feb-19 14:56N 36°54' W 076°05'0 0.0
2018-Feb-19 14:17N 36°54' W 076°05'0 0.0
2018-Feb-19 13:50N 36°54' W 076°05'0 0.0
2018-Feb-19 13:29N 36°54' W 076°05'0 0.0
2018-Feb-19 11:12N 36°54' W 076°05'14 8.7
2018-Feb-19 09:37N 37°08' W 076°04'524.6
2018-Feb-19 09:24N 37°03' W 076°04'8 0.6
2018-Feb-18 20:04N 36°54' W 076°05'0 0.0
2018-Feb-18 19:59N 36°54' W 076°05'0 0.0
2018-Feb-18 19:05N 36°54' W 076°05'0 0.0
2018-Feb-18 18:51N 36°54' W 076°05'0 0.0
2018-Feb-18 18:07N 36°54' W 076°05'0 0.0
2018-Feb-18 17:11N 36°54' W 076°05'316.2
2018-Feb-18 17:00N 36°56' W 076°02'3 6.2
2018-Feb-18 16:30N 36°54' W 076°05'0 0.0
2018-Feb-18 15:57N 36°54' W 076°05'0 0.0
2018-Feb-18 15:30N 36°54' W 076°05'0 0.0
2018-Feb-18 15:00N 36°54' W 076°05'0 0.0
2018-Feb-17 22:21N 36°54' W 076°05'0 0.0
2018-Feb-17 22:00N 36°54' W 076°05'0 0.0
2018-Feb-17 03:17N 36°54' W 076°05'413.0
2018-Feb-17 03:00N 36°57' W 076°02'4 0.6
2018-Feb-16 21:08N 36°54' W 076°05'0 0.0
2018-Feb-16 21:00N 36°54' W 076°05'713.7
2018-Feb-16 20:30N 36°56' W 075°57'7 9.7
2018-Feb-16 19:46N 36°54' W 076°06'415.7
2018-Feb-16 19:30N 36°57' W 076°01'5 9.7
2018-Feb-16 19:01N 36°55' W 075°56'815.6
2018-Feb-16 18:30N 36°55' W 076°06'0 0.1
2018-Feb-16 16:20N 36°54' W 076°05'0 0.0
2018-Feb-16 08:11N 36°54' W 076°05'0 0.0
2018-Feb-16 07:51N 36°54' W 076°05'0 0.0
2018-Feb-16 07:16N 36°54' W 076°05'0 0.0
2018-Feb-15 22:51N 36°54' W 076°05'0 0.0
2018-Feb-15 22:29N 36°54' W 076°05'0 0.0
2018-Feb-15 22:01N 36°54' W 076°05'0 0.0
2018-Feb-15 21:26N 36°54' W 076°05'0 0.0
2018-Feb-15 20:59N 36°54' W 076°05'0 0.0
2018-Feb-15 20:30N 36°54' W 076°05'0 0.0
2018-Feb-15 20:00N 36°54' W 076°05'0 0.0
2018-Feb-15 19:30N 36°54' W 076°05'0 0.0
2018-Feb-15 19:00N 36°54' W 076°05'0 0.0
2018-Feb-15 18:31N 36°54' W 076°05'0 0.0
2018-Feb-15 18:00N 36°54' W 076°05'0 0.0
2018-Feb-15 17:27N 36°54' W 076°05'0 0.0
2018-Feb-15 17:00N 36°54' W 076°05'0 0.0
2018-Feb-15 16:30N 36°54' W 076°05'0 0.0
2018-Feb-15 15:56N 36°54' W 076°05'0 0.0
2018-Feb-15 15:28N 36°54' W 076°05'0 0.0
2018-Feb-15 15:00N 36°54' W 076°05'0 0.0
2018-Feb-15 14:30N 36°54' W 076°05'0 0.0
2018-Feb-15 13:58N 36°54' W 076°05'0 0.0
2018-Feb-15 13:30N 36°54' W 076°05'0 0.0
2018-Feb-15 12:05N 36°54' W 076°05'0 0.0
2018-Feb-14 22:38N 36°54' W 076°05'0 0.0
2018-Feb-14 22:30N 36°54' W 076°05'0 0.0
2018-Feb-14 22:00N 36°54' W 076°05'2 3.4
2018-Feb-14 21:30N 36°56' W 076°04'2 3.4
2018-Feb-14 21:00N 36°54' W 076°05'0 0.0
2018-Feb-14 16:33N 36°54' W 076°05'0 0.3
2018-Feb-14 16:30N 36°54' W 076°05'0 0.0
2018-Feb-14 15:58N 36°54' W 076°05'0 0.0
2018-Feb-14 15:23N 36°54' W 076°05'0 0.0
2018-Feb-14 14:45N 36°54' W 076°05'0 0.0
2018-Feb-14 14:26N 36°54' W 076°05'4 8.5
2018-Feb-14 14:00N 36°57' W 076°02'4 2.0
2018-Feb-14 12:10N 36°54' W 076°05'0 0.1
2018-Feb-14 11:59N 36°54' W 076°05'0 0.3
2018-Feb-14 11:17N 36°55' W 076°06'0 0.4
2018-Feb-14 10:58N 36°54' W 076°05'0 0.2
2018-Feb-14 10:14N 36°55' W 076°06'0 0.4
2018-Feb-14 09:56N 36°54' W 076°05'1213.6
2018-Feb-14 09:04N 37°06' W 076°04'326.6
2018-Feb-14 08:57N 37°03' W 076°04'9 0.8
2018-Feb-13 21:25N 36°54' W 076°05'0 0.0
2018-Feb-13 20:55N 36°54' W 076°05'0 0.0
2018-Feb-13 20:29N 36°54' W 076°05'0 0.0
2018-Feb-13 19:58N 36°54' W 076°05'0 0.0
2018-Feb-13 18:17N 36°54' W 076°05'0 0.0
2018-Feb-13 18:00N 36°54' W 076°05'0 0.0
2018-Feb-13 16:33N 36°54' W 076°05'0 0.0
2018-Feb-13 12:50N 36°54' W 076°05'0 0.0
2018-Feb-12 22:02N 36°54' W 076°05'0 0.0
2018-Feb-12 21:56N 36°54' W 076°05'0 0.0
2018-Feb-12 21:30N 36°54' W 076°05'0 0.0
2018-Feb-12 20:59N 36°54' W 076°05'0 0.0
2018-Feb-12 20:28N 36°54' W 076°05'0 0.0
2018-Feb-12 19:59N 36°54' W 076°05'0 0.0
2018-Feb-12 19:29N 36°54' W 076°05'0 0.0
2018-Feb-12 19:00N 36°54' W 076°05'0 0.0
2018-Feb-12 18:29N 36°54' W 076°05'0 0.0
2018-Feb-12 18:00N 36°54' W 076°05'0 0.0
2018-Feb-12 17:27N 36°54' W 076°05'0 0.0
2018-Feb-12 16:59N 36°54' W 076°05'0 0.0
2018-Feb-12 16:30N 36°54' W 076°05'0 0.0
2018-Feb-12 16:00N 36°54' W 076°05'0 0.0
2018-Feb-12 15:18N 36°54' W 076°05'0 0.0
2018-Feb-12 14:58N 36°54' W 076°05'0 0.0
2018-Feb-12 14:17N 36°54' W 076°05'0 0.0
2018-Feb-11 19:31N 36°54' W 076°05'0 0.0
2018-Feb-11 19:30N 36°54' W 076°05'2 4.0
2018-Feb-11 19:00N 36°56' W 076°05'2 3.2
2018-Feb-11 18:23N 36°54' W 076°05'0 0.0
2018-Feb-11 18:00N 36°54' W 076°05'0 0.0
2018-Feb-11 17:22N 36°54' W 076°05'0 0.0
2018-Feb-11 17:00N 36°54' W 076°05'  

Dump ship's entire track history